Bartahatchie, Mississippi
Current Conditions -  °F | °C
As of 11:58 PM on Tuesday 25 Nov 2014 (Local Time) from KCBM Reporting Station
Clear Clear  
Wind Chill: 30°   Ceiling: Unl
Heat Index: 35°   Visibility: 10mi
Dew Point: 26°   Wind: 6mph
Humidity: 71%   Direction: 300°WNW
Pressure: 30.17"   Gusts: NA
Location:  33.6943°N, 88.3042°W
Report Text: KCBM 260558Z AUTO 30005KT 10SM CLR 02/M03 A3017 RMK AO2 SLP220 T00151033 10073 21001 401081014 58009 $
Loading
Personal Weather Stations






























Interactive Weather Map New forecast layout! Learn more

10-Day Weather Forecast

Advertisements
Track Severe Weather on mobile